sensor_id;sensor_type;location;lat;lon;timestamp;noise_LAeq;noise_LA_min;noise_LA_max;noise_LA01;noise_LA95
67310;Laerm;65444;51.438;5.982;2023-02-28T00:00:00;30.70;29.18;32.67;;
67310;Laerm;65444;51.438;5.982;2023-02-28T00:00:10;32.64;28.93;42.93;;
67310;Laerm;65444;51.438;5.982;2023-02-28T00:00:22;30.64;28.97;31.87;;
67310;Laerm;65444;51.438;5.982;2023-02-28T00:00:32;30.72;29.05;32.15;;
67310;Laerm;65444;51.438;5.982;2023-02-28T00:00:58;30.56;29.00;32.07;;
67310;Laerm;65444;51.438;5.982;2023-02-28T00:01:08;30.53;29.00;31.94;;
67310;Laerm;65444;51.438;5.982;2023-02-28T00:01:18;30.63;28.90;33.65;;
67310;Laerm;65444;51.438;5.982;2023-02-28T00:01:38;33.03;28.93;38.77;;
67310;Laerm;65444;51.438;5.982;2023-02-28T00:01:48;30.60;28.96;31.95;;
67310;Laerm;65444;51.438;5.982;2023-02-28T00:02:34;33.65;28.68;38.34;;
67310;Laerm;65444;51.438;5.982;2023-02-28T00:02:45;33.31;30.91;35.25;;
67310;Laerm;65444;51.438;5.982;2023-02-28T00:02:58;34.06;31.61;36.85;;
67310;Laerm;65444;51.438;5.982;2023-02-28T00:03:08;34.42;32.30;44.19;;
67310;Laerm;65444;51.438;5.982;2023-02-28T00:03:22;34.34;32.02;36.26;;
67310;Laerm;65444;51.438;5.982;2023-02-28T00:03:32;34.51;32.18;36.94;;
67310;Laerm;65444;51.438;5.982;2023-02-28T00:03:45;34.43;32.14;36.53;;
67310;Laerm;65444;51.438;5.982;2023-02-28T00:03:57;34.52;32.46;37.28;;
67310;Laerm;65444;51.438;5.982;2023-02-28T00:04:08;34.45;32.53;36.65;;
67310;Laerm;65444;51.438;5.982;2023-02-28T00:04:19;34.49;32.32;36.53;;
67310;Laerm;65444;51.438;5.982;2023-02-28T00:04:32;34.43;32.44;36.40;;
67310;Laerm;65444;51.438;5.982;2023-02-28T00:05:13;34.26;31.79;36.82;;
67310;Laerm;65444;51.438;5.982;2023-02-28T00:05:22;33.88;31.56;36.27;;
67310;Laerm;65444;51.438;5.982;2023-02-28T00:05:48;33.51;31.28;36.04;;
67310;Laerm;65444;51.438;5.982;2023-02-28T00:05:58;33.05;31.03;35.79;;
67310;Laerm;65444;51.438;5.982;2023-02-28T00:06:09;32.59;30.12;37.46;;
67310;Laerm;65444;51.438;5.982;2023-02-28T00:06:19;32.33;30.46;34.14;;
67310;Laerm;65444;51.438;5.982;2023-02-28T00:06:55;31.81;29.65;34.33;;
67310;Laerm;65444;51.438;5.982;2023-02-28T00:07:12;31.23;29.35;33.31;;
67310;Laerm;65444;51.438;5.982;2023-02-28T00:07:22;30.72;28.93;43.80;;
67310;Laerm;65444;51.438;5.982;2023-02-28T00:07:32;30.73;28.86;32.03;;
67310;Laerm;65444;51.438;5.982;2023-02-28T00:07:45;30.36;28.69;32.18;;
67310;Laerm;65444;51.438;5.982;2023-02-28T00:08:14;30.65;28.94;32.83;;
67310;Laerm;65444;51.438;5.982;2023-02-28T00:08:24;30.94;29.15;32.48;;
67310;Laerm;65444;51.438;5.982;2023-02-28T00:08:35;30.71;28.66;32.02;;
67310;Laerm;65444;51.438;5.982;2023-02-28T00:08:51;30.58;28.97;32.63;;
67310;Laerm;65444;51.438;5.982;2023-02-28T00:09:01;30.70;29.38;35.22;;
67310;Laerm;65444;51.438;5.982;2023-02-28T00:09:11;30.42;28.98;32.05;;
67310;Laerm;65444;51.438;5.982;2023-02-28T00:09:25;30.72;29.03;32.36;;
67310;Laerm;65444;51.438;5.982;2023-02-28T00:09:35;30.73;29.16;32.50;;
67310;Laerm;65444;51.438;5.982;2023-02-28T00:09:45;30.45;29.05;32.24;;
67310;Laerm;65444;51.438;5.982;2023-02-28T00:10:05;30.75;28.58;33.15;;
67310;Laerm;65444;51.438;5.982;2023-02-28T00:10:20;30.54;28.67;32.11;;
67310;Laerm;65444;51.438;5.982;2023-02-28T00:10:41;30.76;29.36;32.51;;
67310;Laerm;65444;51.438;5.982;2023-02-28T00:11:02;30.62;28.91;33.61;;
67310;Laerm;65444;51.438;5.982;2023-02-28T00:11:21;30.64;29.04;32.27;;
67310;Laerm;65444;51.438;5.982;2023-02-28T00:11:32;30.78;29.30;32.44;;
67310;Laerm;65444;51.438;5.982;2023-02-28T00:11:42;30.46;28.85;32.14;;
67310;Laerm;65444;51.438;5.982;2023-02-28T00:11:53;30.80;29.07;32.32;;
67310;Laerm;65444;51.438;5.982;2023-02-28T00:12:03;30.97;29.67;32.53;;
67310;Laerm;65444;51.438;5.982;2023-02-28T00:12:20;30.71;28.61;32.67;;
67310;Laerm;65444;51.438;5.982;2023-02-28T00:12:30;30.71;29.07;32.22;;
67310;Laerm;65444;51.438;5.982;2023-02-28T00:12:40;30.46;29.27;31.80;;
67310;Laerm;65444;51.438;5.982;2023-02-28T00:12:51;30.75;29.23;32.45;;
67310;Laerm;65444;51.438;5.982;2023-02-28T00:13:03;30.82;29.42;32.20;;
67310;Laerm;65444;51.438;5.982;2023-02-28T00:13:14;30.67;29.18;32.13;;
67310;Laerm;65444;51.438;5.982;2023-02-28T00:13:24;31.62;30.05;33.80;;
67310;Laerm;65444;51.438;5.982;2023-02-28T00:13:45;32.81;30.28;34.72;;
67310;Laerm;65444;51.438;5.982;2023-02-28T00:13:58;33.96;32.27;36.49;;
67310;Laerm;65444;51.438;5.982;2023-02-28T00:14:09;35.69;33.30;37.27;;
67310;Laerm;65444;51.438;5.982;2023-02-28T00:14:19;36.35;33.69;41.04;;
67310;Laerm;65444;51.438;5.982;2023-02-28T00:14:30;36.82;34.89;38.79;;
67310;Laerm;65444;51.438;5.982;2023-02-28T00:14:43;38.21;35.91;40.19;;
67310;Laerm;65444;51.438;5.982;2023-02-28T00:14:53;37.60;34.60;39.92;;
67310;Laerm;65444;51.438;5.982;2023-02-28T00:15:12;35.31;32.15;38.34;;
67310;Laerm;65444;51.438;5.982;2023-02-28T00:15:22;32.16;30.15;35.28;;
67310;Laerm;65444;51.438;5.982;2023-02-28T00:15:33;31.41;29.50;32.99;;
67310;Laerm;65444;51.438;5.982;2023-02-28T00:15:43;31.24;29.88;33.14;;
67310;Laerm;65444;51.438;5.982;2023-02-28T00:16:13;31.17;29.79;32.75;;
67310;Laerm;65444;51.438;5.982;2023-02-28T00:16:41;30.84;28.65;32.36;;
67310;Laerm;65444;51.438;5.982;2023-02-28T00:16:52;30.92;29.15;32.64;;
67310;Laerm;65444;51.438;5.982;2023-02-28T00:17:02;30.91;29.15;32.58;;
67310;Laerm;65444;51.438;5.982;2023-02-28T00:17:12;30.82;29.22;32.35;;
67310;Laerm;65444;51.438;5.982;2023-02-28T00:17:30;30.87;29.18;32.56;;
67310;Laerm;65444;51.438;5.982;2023-02-28T00:17:40;30.66;29.23;31.98;;
67310;Laerm;65444;51.438;5.982;2023-02-28T00:17:53;31.21;29.40;32.98;;
67310;Laerm;65444;51.438;5.982;2023-02-28T00:18:06;31.58;29.55;33.93;;
67310;Laerm;65444;51.438;5.982;2023-02-28T00:19:03;30.90;28.89;34.27;;
67310;Laerm;65444;51.438;5.982;2023-02-28T00:19:13;30.83;29.25;32.99;;
67310;Laerm;65444;51.438;5.982;2023-02-28T00:19:23;30.79;29.38;32.17;;
67310;Laerm;65444;51.438;5.982;2023-02-28T00:19:34;30.73;29.49;32.19;;
67310;Laerm;65444;51.438;5.982;2023-02-28T00:19:50;30.63;28.81;34.09;;
67310;Laerm;65444;51.438;5.982;2023-02-28T00:20:07;30.65;28.97;32.33;;
67310;Laerm;65444;51.438;5.982;2023-02-28T00:20:28;30.56;29.04;32.22;;
67310;Laerm;65444;51.438;5.982;2023-02-28T00:21:02;30.66;28.99;32.43;;
67310;Laerm;65444;51.438;5.982;2023-02-28T00:21:12;30.55;29.20;32.55;;
67310;Laerm;65444;51.438;5.982;2023-02-28T00:21:23;30.72;29.34;32.51;;
67310;Laerm;65444;51.438;5.982;2023-02-28T00:21:34;30.63;29.13;32.31;;
67310;Laerm;65444;51.438;5.982;2023-02-28T00:21:45;30.59;28.94;32.27;;
67310;Laerm;65444;51.438;5.982;2023-02-28T00:21:55;30.71;29.43;32.15;;
67310;Laerm;65444;51.438;5.982;2023-02-28T00:22:06;30.63;28.94;32.30;;
67310;Laerm;65444;51.438;5.982;2023-02-28T00:22:17;30.59;29.03;32.13;;
67310;Laerm;65444;51.438;5.982;2023-02-28T00:22:27;30.70;28.91;32.46;;
67310;Laerm;65444;51.438;5.982;2023-02-28T00:22:42;30.59;28.97;32.03;;
67310;Laerm;65444;51.438;5.982;2023-02-28T00:22:52;30.60;29.13;32.16;;
67310;Laerm;65444;51.438;5.982;2023-02-28T00:23:05;30.68;29.15;32.61;;
67310;Laerm;65444;51.438;5.982;2023-02-28T00:24:04;30.62;29.11;34.06;;
67310;Laerm;65444;51.438;5.982;2023-02-28T00:24:14;30.64;29.30;32.10;;
67310;Laerm;65444;51.438;5.982;2023-02-28T00:24:25;30.61;29.30;32.00;;
67310;Laerm;65444;51.438;5.982;2023-02-28T00:24:44;30.66;28.92;32.98;;
67310;Laerm;65444;51.438;5.982;2023-02-28T00:24:55;30.66;29.07;32.14;;
67310;Laerm;65444;51.438;5.982;2023-02-28T00:25:06;30.67;29.19;32.20;;
67310;Laerm;65444;51.438;5.982;2023-02-28T00:25:23;30.59;28.96;32.47;;
67310;Laerm;65444;51.438;5.982;2023-02-28T00:25:34;30.67;29.07;32.27;;
67310;Laerm;65444;51.438;5.982;2023-02-28T00:25:44;30.59;29.17;32.21;;
67310;Laerm;65444;51.438;5.982;2023-02-28T00:26:15;30.74;29.09;34.76;;
67310;Laerm;65444;51.438;5.982;2023-02-28T00:26:25;30.62;29.05;32.50;;
67310;Laerm;65444;51.438;5.982;2023-02-28T00:26:35;30.69;28.91;32.45;;
67310;Laerm;65444;51.438;5.982;2023-02-28T00:26:54;30.74;28.72;32.60;;
67310;Laerm;65444;51.438;5.982;2023-02-28T00:27:05;30.75;29.08;32.21;;
67310;Laerm;65444;51.438;5.982;2023-02-28T00:27:15;30.60;29.21;32.19;;
67310;Laerm;65444;51.438;5.982;2023-02-28T00:27:25;30.71;29.18;32.27;;
67310;Laerm;65444;51.438;5.982;2023-02-28T00:27:36;30.71;29.29;32.10;;
67310;Laerm;65444;51.438;5.982;2023-02-28T00:28:07;30.72;29.11;34.92;;
67310;Laerm;65444;51.438;5.982;2023-02-28T00:28:17;30.76;29.14;34.69;;
67310;Laerm;65444;51.438;5.982;2023-02-28T00:28:28;30.62;29.12;32.05;;
67310;Laerm;65444;51.438;5.982;2023-02-28T00:28:38;30.64;29.33;32.09;;
67310;Laerm;65444;51.438;5.982;2023-02-28T00:28:49;30.65;29.25;32.28;;
67310;Laerm;65444;51.438;5.982;2023-02-28T00:29:02;30.61;28.75;32.27;;
67310;Laerm;65444;51.438;5.982;2023-02-28T00:29:12;30.66;28.98;32.71;;
67310;Laerm;65444;51.438;5.982;2023-02-28T00:29:23;30.64;29.12;32.00;;
67310;Laerm;65444;51.438;5.982;2023-02-28T00:29:33;30.71;28.92;32.16;;
67310;Laerm;65444;51.438;5.982;2023-02-28T00:29:43;30.71;29.52;32.39;;
67310;Laerm;65444;51.438;5.982;2023-02-28T00:29:53;30.73;29.27;32.18;;
67310;Laerm;65444;51.438;5.982;2023-02-28T00:30:04;30.71;29.28;31.92;;
67310;Laerm;65444;51.438;5.982;2023-02-28T00:30:17;30.73;29.37;31.95;;
67310;Laerm;65444;51.438;5.982;2023-02-28T00:30:27;30.83;29.55;32.33;;
67310;Laerm;65444;51.438;5.982;2023-02-28T00:30:44;30.94;29.59;32.69;;
67310;Laerm;65444;51.438;5.982;2023-02-28T00:30:57;31.42;29.52;34.66;;
67310;Laerm;65444;51.438;5.982;2023-02-28T00:31:09;33.23;29.74;42.96;;
67310;Laerm;65444;51.438;5.982;2023-02-28T00:31:22;31.71;30.05;33.55;;
67310;Laerm;65444;51.438;5.982;2023-02-28T00:31:33;31.45;29.26;33.45;;
67310;Laerm;65444;51.438;5.982;2023-02-28T00:31:43;30.78;29.31;32.21;;
67310;Laerm;65444;51.438;5.982;2023-02-28T00:31:56;31.04;29.63;32.48;;
67310;Laerm;65444;51.438;5.982;2023-02-28T00:32:06;31.23;29.69;32.70;;
67310;Laerm;65444;51.438;5.982;2023-02-28T00:32:16;31.58;29.86;34.62;;
67310;Laerm;65444;51.438;5.982;2023-02-28T00:32:33;31.52;29.66;34.53;;
67310;Laerm;65444;51.438;5.982;2023-02-28T00:32:44;30.99;29.17;32.60;;
67310;Laerm;65444;51.438;5.982;2023-02-28T00:32:54;30.82;29.37;33.11;;
67310;Laerm;65444;51.438;5.982;2023-02-28T00:33:05;30.85;29.28;32.55;;
67310;Laerm;65444;51.438;5.982;2023-02-28T00:33:18;30.86;29.27;32.30;;
67310;Laerm;65444;51.438;5.982;2023-02-28T00:33:28;30.85;29.08;32.20;;
67310;Laerm;65444;51.438;5.982;2023-02-28T00:33:39;30.68;29.11;32.20;;
67310;Laerm;65444;51.438;5.982;2023-02-28T00:33:49;30.79;29.36;32.57;;
67310;Laerm;65444;51.438;5.982;2023-02-28T00:34:00;30.79;29.55;32.33;;
67310;Laerm;65444;51.438;5.982;2023-02-28T00:34:11;30.79;29.20;32.05;;
67310;Laerm;65444;51.438;5.982;2023-02-28T00:34:21;30.79;29.50;32.44;;
67310;Laerm;65444;51.438;5.982;2023-02-28T00:35:15;30.80;29.08;32.35;;
67310;Laerm;65444;51.438;5.982;2023-02-28T00:35:26;30.86;29.06;32.55;;
67310;Laerm;65444;51.438;5.982;2023-02-28T00:35:39;30.97;29.36;32.51;;
67310;Laerm;65444;51.438;5.982;2023-02-28T00:36:02;30.55;28.86;35.37;;
67310;Laerm;65444;51.438;5.982;2023-02-28T00:36:13;35.19;29.42;37.73;;
67310;Laerm;65444;51.438;5.982;2023-02-28T00:36:26;34.76;32.79;36.91;;
67310;Laerm;65444;51.438;5.982;2023-02-28T00:36:37;34.77;32.32;36.83;;
67310;Laerm;65444;51.438;5.982;2023-02-28T00:36:47;35.10;33.06;37.43;;
67310;Laerm;65444;51.438;5.982;2023-02-28T00:37:07;35.07;32.58;37.71;;
67310;Laerm;65444;51.438;5.982;2023-02-28T00:37:18;35.09;33.01;37.37;;
67310;Laerm;65444;51.438;5.982;2023-02-28T00:37:34;35.17;32.94;37.10;;
67310;Laerm;65444;51.438;5.982;2023-02-28T00:37:45;35.04;32.45;37.68;;
67310;Laerm;65444;51.438;5.982;2023-02-28T00:37:56;35.06;32.55;37.19;;
67310;Laerm;65444;51.438;5.982;2023-02-28T00:38:14;35.02;32.31;37.20;;
67310;Laerm;65444;51.438;5.982;2023-02-28T00:38:26;35.08;32.73;37.33;;
67310;Laerm;65444;51.438;5.982;2023-02-28T00:38:36;34.95;32.24;37.17;;
67310;Laerm;65444;51.438;5.982;2023-02-28T00:39:11;34.89;31.88;37.44;;
67310;Laerm;65444;51.438;5.982;2023-02-28T00:39:22;34.78;32.22;36.62;;
67310;Laerm;65444;51.438;5.982;2023-02-28T00:39:35;35.11;33.07;37.74;;
67310;Laerm;65444;51.438;5.982;2023-02-28T00:39:50;34.88;31.98;37.65;;
67310;Laerm;65444;51.438;5.982;2023-02-28T00:40:01;34.36;31.98;36.59;;
67310;Laerm;65444;51.438;5.982;2023-02-28T00:40:15;33.90;31.34;35.97;;
67310;Laerm;65444;51.438;5.982;2023-02-28T00:41:43;31.84;28.97;35.30;;
67310;Laerm;65444;51.438;5.982;2023-02-28T00:41:53;30.24;28.77;31.93;;
67310;Laerm;65444;51.438;5.982;2023-02-28T00:42:47;30.17;28.53;31.88;;
67310;Laerm;65444;51.438;5.982;2023-02-28T00:42:58;30.21;28.86;31.44;;
67310;Laerm;65444;51.438;5.982;2023-02-28T00:43:08;30.18;28.86;31.64;;
67310;Laerm;65444;51.438;5.982;2023-02-28T00:44:05;30.21;28.67;31.73;;
67310;Laerm;65444;51.438;5.982;2023-02-28T00:44:16;30.18;29.03;31.63;;
67310;Laerm;65444;51.438;5.982;2023-02-28T00:44:26;30.28;28.85;31.49;;
67310;Laerm;65444;51.438;5.982;2023-02-28T00:44:38;30.33;29.07;31.75;;
67310;Laerm;65444;51.438;5.982;2023-02-28T00:44:51;30.41;28.89;32.12;;
67310;Laerm;65444;51.438;5.982;2023-02-28T00:45:08;30.47;28.85;32.40;;
67310;Laerm;65444;51.438;5.982;2023-02-28T00:45:19;30.62;29.17;32.03;;
67310;Laerm;65444;51.438;5.982;2023-02-28T00:45:32;30.61;29.35;31.91;;
67310;Laerm;65444;51.438;5.982;2023-02-28T00:45:42;31.41;28.72;39.92;;
67310;Laerm;65444;51.438;5.982;2023-02-28T00:45:53;32.65;29.77;36.56;;
67310;Laerm;65444;51.438;5.982;2023-02-28T00:46:03;33.12;29.74;38.94;;
67310;Laerm;65444;51.438;5.982;2023-02-28T00:46:14;33.28;30.09;39.40;;
67310;Laerm;65444;51.438;5.982;2023-02-28T00:46:24;32.71;30.00;37.99;;
67310;Laerm;65444;51.438;5.982;2023-02-28T00:46:34;33.41;30.35;42.24;;
67310;Laerm;65444;51.438;5.982;2023-02-28T00:46:47;34.96;31.09;42.77;;
67310;Laerm;65444;51.438;5.982;2023-02-28T00:46:58;32.76;29.39;40.96;;
67310;Laerm;65444;51.438;5.982;2023-02-28T00:47:08;30.91;29.44;36.66;;
67310;Laerm;65444;51.438;5.982;2023-02-28T00:47:21;32.04;29.56;43.13;;
67310;Laerm;65444;51.438;5.982;2023-02-28T00:47:32;33.10;30.44;40.05;;
67310;Laerm;65444;51.438;5.982;2023-02-28T00:47:42;32.16;29.92;38.35;;
67310;Laerm;65444;51.438;5.982;2023-02-28T00:47:52;32.08;29.20;35.76;;
67310;Laerm;65444;51.438;5.982;2023-02-28T00:48:03;31.83;29.42;38.18;;
67310;Laerm;65444;51.438;5.982;2023-02-28T00:48:16;32.52;29.45;44.06;;
67310;Laerm;65444;51.438;5.982;2023-02-28T00:48:27;30.51;29.09;32.29;;
67310;Laerm;65444;51.438;5.982;2023-02-28T00:48:37;30.44;28.97;31.80;;
67310;Laerm;65444;51.438;5.982;2023-02-28T00:48:48;30.36;28.91;31.72;;
67310;Laerm;65444;51.438;5.982;2023-02-28T00:49:20;30.40;28.86;31.99;;
67310;Laerm;65444;51.438;5.982;2023-02-28T00:49:32;30.14;29.01;31.55;;
67310;Laerm;65444;51.438;5.982;2023-02-28T00:49:42;30.27;28.79;31.68;;
67310;Laerm;65444;51.438;5.982;2023-02-28T00:50:01;30.31;28.74;31.80;;
67310;Laerm;65444;51.438;5.982;2023-02-28T00:50:12;30.94;29.33;33.14;;
67310;Laerm;65444;51.438;5.982;2023-02-28T00:50:22;31.41;29.33;37.34;;
67310;Laerm;65444;51.438;5.982;2023-02-28T00:50:32;33.53;31.15;35.98;;
67310;Laerm;65444;51.438;5.982;2023-02-28T00:50:42;32.12;30.46;33.81;;
67310;Laerm;65444;51.438;5.982;2023-02-28T00:50:53;32.29;30.37;34.13;;
67310;Laerm;65444;51.438;5.982;2023-02-28T00:51:03;32.69;30.97;34.50;;
67310;Laerm;65444;51.438;5.982;2023-02-28T00:51:13;35.06;32.36;37.68;;
67310;Laerm;65444;51.438;5.982;2023-02-28T00:51:24;37.09;33.89;40.34;;
67310;Laerm;65444;51.438;5.982;2023-02-28T00:51:37;37.44;31.90;43.91;;
67310;Laerm;65444;51.438;5.982;2023-02-28T00:51:47;33.65;30.94;37.13;;
67310;Laerm;65444;51.438;5.982;2023-02-28T00:52:00;32.78;29.96;37.45;;
67310;Laerm;65444;51.438;5.982;2023-02-28T00:52:11;30.94;29.10;32.54;;
67310;Laerm;65444;51.438;5.982;2023-02-28T00:52:21;31.23;29.84;32.99;;
67310;Laerm;65444;51.438;5.982;2023-02-28T00:52:37;31.64;29.59;34.46;;
67310;Laerm;65444;51.438;5.982;2023-02-28T00:52:47;31.28;29.71;32.99;;
67310;Laerm;65444;51.438;5.982;2023-02-28T00:52:58;31.61;30.02;34.43;;
67310;Laerm;65444;51.438;5.982;2023-02-28T00:53:08;32.32;30.45;35.26;;
67310;Laerm;65444;51.438;5.982;2023-02-28T00:53:22;31.10;29.12;33.27;;
67310;Laerm;65444;51.438;5.982;2023-02-28T00:53:32;31.60;29.57;33.82;;
67310;Laerm;65444;51.438;5.982;2023-02-28T00:53:43;31.56;30.20;33.24;;
67310;Laerm;65444;51.438;5.982;2023-02-28T00:53:53;30.80;29.18;32.41;;
67310;Laerm;65444;51.438;5.982;2023-02-28T00:54:04;30.60;29.11;32.02;;
67310;Laerm;65444;51.438;5.982;2023-02-28T00:54:14;30.53;29.18;31.80;;
67310;Laerm;65444;51.438;5.982;2023-02-28T00:54:26;31.22;29.74;33.01;;
67310;Laerm;65444;51.438;5.982;2023-02-28T00:54:37;33.69;29.73;40.26;;
67310;Laerm;65444;51.438;5.982;2023-02-28T00:54:47;31.99;29.82;34.48;;
67310;Laerm;65444;51.438;5.982;2023-02-28T00:54:57;30.63;29.51;32.02;;
67310;Laerm;65444;51.438;5.982;2023-02-28T00:55:08;30.60;29.23;32.24;;
67310;Laerm;65444;51.438;5.982;2023-02-28T00:55:18;30.34;29.09;32.38;;
67310;Laerm;65444;51.438;5.982;2023-02-28T00:55:28;30.28;28.94;31.73;;
67310;Laerm;65444;51.438;5.982;2023-02-28T00:55:44;30.27;28.77;31.76;;
67310;Laerm;65444;51.438;5.982;2023-02-28T00:55:54;30.37;28.34;31.76;;
67310;Laerm;65444;51.438;5.982;2023-02-28T00:56:05;31.94;29.96;34.02;;
67310;Laerm;65444;51.438;5.982;2023-02-28T00:56:15;30.37;28.90;31.94;;
67310;Laerm;65444;51.438;5.982;2023-02-28T00:56:25;30.41;28.82;32.34;;
67310;Laerm;65444;51.438;5.982;2023-02-28T00:56:38;30.39;28.94;32.18;;
67310;Laerm;65444;51.438;5.982;2023-02-28T00:56:49;30.31;28.92;32.81;;
67310;Laerm;65444;51.438;5.982;2023-02-28T00:56:59;30.37;29.04;31.92;;
67310;Laerm;65444;51.438;5.982;2023-02-28T00:57:09;30.55;29.03;32.23;;
67310;Laerm;65444;51.438;5.982;2023-02-28T00:57:20;30.87;29.55;32.49;;
67310;Laerm;65444;51.438;5.982;2023-02-28T00:57:33;32.19;30.08;34.29;;
67310;Laerm;65444;51.438;5.982;2023-02-28T00:57:49;33.58;30.95;37.00;;
67310;Laerm;65444;51.438;5.982;2023-02-28T00:58:02;35.32;33.04;39.40;;
67310;Laerm;65444;51.438;5.982;2023-02-28T00:58:12;37.36;34.49;39.86;;
67310;Laerm;65444;51.438;5.982;2023-02-28T00:58:35;40.61;35.60;45.46;;
67310;Laerm;65444;51.438;5.982;2023-02-28T00:58:45;40.54;35.40;44.95;;
67310;Laerm;65444;51.438;5.982;2023-02-28T00:58:58;39.56;35.47;44.21;;
67310;Laerm;65444;51.438;5.982;2023-02-28T00:59:29;35.86;30.08;41.62;;
67310;Laerm;65444;51.438;5.982;2023-02-28T00:59:39;32.01;30.32;33.58;;
67310;Laerm;65444;51.438;5.982;2023-02-28T00:59:49;32.98;30.56;38.03;;
67310;Laerm;65444;51.438;5.982;2023-02-28T01:00:00;33.00;30.03;40.59;;
67310;Laerm;65444;51.438;5.982;2023-02-28T01:00:13;33.74;30.13;41.65;;
67310;Laerm;65444;51.438;5.982;2023-02-28T01:00:24;31.06;29.34;34.58;;
67310;Laerm;65444;51.438;5.982;2023-02-28T01:00:34;31.55;29.82;33.47;;
67310;Laerm;65444;51.438;5.982;2023-02-28T01:00:53;31.64;29.54;33.95;;
67310;Laerm;65444;51.438;5.982;2023-02-28T01:01:05;33.65;31.20;36.67;;
67310;Laerm;65444;51.438;5.982;2023-02-28T01:01:16;33.81;30.17;38.12;;
67310;Laerm;65444;51.438;5.982;2023-02-28T01:01:26;36.05;29.85;43.85;;
67310;Laerm;65444;51.438;5.982;2023-02-28T01:01:36;31.02;29.23;32.64;;
67310;Laerm;65444;51.438;5.982;2023-02-28T01:01:46;31.29;30.01;32.80;;
67310;Laerm;65444;51.438;5.982;2023-02-28T01:01:57;30.45;28.68;31.77;;
67310;Laerm;65444;51.438;5.982;2023-02-28T01:02:07;30.55;28.92;31.96;;
67310;Laerm;65444;51.438;5.982;2023-02-28T01:02:17;30.49;29.06;33.99;;
67310;Laerm;65444;51.438;5.982;2023-02-28T01:02:29;30.35;28.82;35.00;;
67310;Laerm;65444;51.438;5.982;2023-02-28T01:02:40;31.42;29.00;36.76;;
67310;Laerm;65444;51.438;5.982;2023-02-28T01:02:50;33.03;29.67;35.88;;
67310;Laerm;65444;51.438;5.982;2023-02-28T01:03:00;31.03;29.48;33.80;;
67310;Laerm;65444;51.438;5.982;2023-02-28T01:03:10;31.04;29.26;33.91;;
67310;Laerm;65444;51.438;5.982;2023-02-28T01:03:23;31.73;29.15;37.96;;
67310;Laerm;65444;51.438;5.982;2023-02-28T01:03:34;30.50;29.05;31.77;;
67310;Laerm;65444;51.438;5.982;2023-02-28T01:03:44;30.26;28.94;31.46;;
67310;Laerm;65444;51.438;5.982;2023-02-28T01:03:55;30.23;28.94;31.34;;
67310;Laerm;65444;51.438;5.982;2023-02-28T01:04:05;30.48;29.05;32.03;;
67310;Laerm;65444;51.438;5.982;2023-02-28T01:04:15;32.87;29.75;37.62;;
67310;Laerm;65444;51.438;5.982;2023-02-28T01:04:25;31.56;30.09;32.94;;
67310;Laerm;65444;51.438;5.982;2023-02-28T01:06:17;30.30;28.96;32.36;;
67310;Laerm;65444;51.438;5.982;2023-02-28T01:06:28;30.29;29.03;31.84;;
67310;Laerm;65444;51.438;5.982;2023-02-28T01:06:41;30.31;29.07;31.97;;
67310;Laerm;65444;51.438;5.982;2023-02-28T01:07:09;30.29;28.71;32.02;;
67310;Laerm;65444;51.438;5.982;2023-02-28T01:07:19;30.77;29.00;32.84;;
67310;Laerm;65444;51.438;5.982;2023-02-28T01:07:29;30.66;29.11;32.44;;
67310;Laerm;65444;51.438;5.982;2023-02-28T01:07:40;30.82;29.10;32.89;;
67310;Laerm;65444;51.438;5.982;2023-02-28T01:07:53;30.30;29.09;31.62;;
67310;Laerm;65444;51.438;5.982;2023-02-28T01:08:06;34.63;29.49;37.74;;
67310;Laerm;65444;51.438;5.982;2023-02-28T01:09:35;35.32;32.39;38.50;;
67310;Laerm;65444;51.438;5.982;2023-02-28T01:09:54;35.14;32.78;38.52;;
67310;Laerm;65444;51.438;5.982;2023-02-28T01:10:52;34.96;32.45;37.94;;
67310;Laerm;65444;51.438;5.982;2023-02-28T01:11:12;34.84;32.16;37.40;;
67310;Laerm;65444;51.438;5.982;2023-02-28T01:11:28;34.59;32.45;36.64;;
67310;Laerm;65444;51.438;5.982;2023-02-28T01:11:39;34.38;31.76;36.78;;
67310;Laerm;65444;51.438;5.982;2023-02-28T01:12:44;35.28;32.41;38.45;;
67310;Laerm;65444;51.438;5.982;2023-02-28T01:12:54;37.46;35.10;39.57;;
67310;Laerm;65444;51.438;5.982;2023-02-28T01:13:20;38.42;36.31;40.62;;
67310;Laerm;65444;51.438;5.982;2023-02-28T01:13:30;39.63;36.03;42.37;;
67310;Laerm;65444;51.438;5.982;2023-02-28T01:13:41;35.95;32.45;38.37;;
67310;Laerm;65444;51.438;5.982;2023-02-28T01:13:52;33.98;30.90;37.16;;
67310;Laerm;65444;51.438;5.982;2023-02-28T01:14:03;31.85;29.50;40.77;;
67310;Laerm;65444;51.438;5.982;2023-02-28T01:14:14;31.97;30.14;34.98;;
67310;Laerm;65444;51.438;5.982;2023-02-28T01:14:25;31.99;29.97;34.92;;
67310;Laerm;65444;51.438;5.982;2023-02-28T01:14:35;30.96;29.48;32.74;;
67310;Laerm;65444;51.438;5.982;2023-02-28T01:14:45;30.68;29.16;32.03;;
67310;Laerm;65444;51.438;5.982;2023-02-28T01:14:56;30.56;29.14;32.03;;
67310;Laerm;65444;51.438;5.982;2023-02-28T01:15:09;30.68;28.93;38.32;;
67310;Laerm;65444;51.438;5.982;2023-02-28T01:15:20;30.58;28.76;32.27;;
67310;Laerm;65444;51.438;5.982;2023-02-28T01:15:31;30.98;29.14;32.61;;
67310;Laerm;65444;51.438;5.982;2023-02-28T01:15:44;32.27;30.11;35.49;;
67310;Laerm;65444;51.438;5.982;2023-02-28T01:15:55;40.52;32.84;47.65;;
67310;Laerm;65444;51.438;5.982;2023-02-28T01:16:09;33.25;29.37;39.38;;
67310;Laerm;65444;51.438;5.982;2023-02-28T01:16:23;30.59;29.04;31.93;;
67310;Laerm;65444;51.438;5.982;2023-02-28T01:16:35;30.73;29.38;32.64;;
67310;Laerm;65444;51.438;5.982;2023-02-28T01:16:48;30.90;29.47;32.56;;
67310;Laerm;65444;51.438;5.982;2023-02-28T01:17:01;38.12;30.31;45.96;;
67310;Laerm;65444;51.438;5.982;2023-02-28T01:17:11;39.34;30.22;46.66;;
67310;Laerm;65444;51.438;5.982;2023-02-28T01:17:22;34.04;29.52;39.36;;
67310;Laerm;65444;51.438;5.982;2023-02-28T01:17:33;39.36;33.93;44.10;;
67310;Laerm;65444;51.438;5.982;2023-02-28T01:17:48;34.23;30.06;36.93;;
67310;Laerm;65444;51.438;5.982;2023-02-28T01:17:58;30.99;29.35;33.89;;
67310;Laerm;65444;51.438;5.982;2023-02-28T01:18:08;30.45;28.80;32.11;;
67310;Laerm;65444;51.438;5.982;2023-02-28T01:18:19;30.51;28.97;32.32;;
67310;Laerm;65444;51.438;5.982;2023-02-28T01:18:56;30.77;29.14;32.95;;
67310;Laerm;65444;51.438;5.982;2023-02-28T01:19:06;31.74;30.04;37.07;;
67310;Laerm;65444;51.438;5.982;2023-02-28T01:19:38;32.59;30.44;34.22;;
67310;Laerm;65444;51.438;5.982;2023-02-28T01:19:47;38.56;32.28;43.90;;
67310;Laerm;65444;51.438;5.982;2023-02-28T01:20:00;39.20;36.84;42.06;;
67310;Laerm;65444;51.438;5.982;2023-02-28T01:20:11;38.35;35.30;40.98;;
67310;Laerm;65444;51.438;5.982;2023-02-28T01:20:21;36.71;34.52;39.10;;
67310;Laerm;65444;51.438;5.982;2023-02-28T01:20:37;34.69;32.33;36.89;;
67310;Laerm;65444;51.438;5.982;2023-02-28T01:20:51;31.94;29.98;34.75;;
67310;Laerm;65444;51.438;5.982;2023-02-28T01:21:10;30.75;29.12;32.35;;
67310;Laerm;65444;51.438;5.982;2023-02-28T01:21:22;30.40;28.93;31.69;;
67310;Laerm;65444;51.438;5.982;2023-02-28T01:21:32;30.26;28.63;31.75;;
67310;Laerm;65444;51.438;5.982;2023-02-28T01:21:42;30.32;29.03;31.68;;
67310;Laerm;65444;51.438;5.982;2023-02-28T01:21:53;30.38;29.06;31.70;;